sensor_id;sensor_type;location;lat;lon;timestamp;P1;durP1;ratioP1;P2;durP2;ratioP2
7841;SDS011;3966;51.052;13.820;2023-07-09T00:02:19;0.10;;;0.10;;
7841;SDS011;3966;51.052;13.820;2023-07-09T00:04:46;0.10;;;0.10;;
7841;SDS011;3966;51.052;13.820;2023-07-09T00:07:15;0.00;;;0.00;;
7841;SDS011;3966;51.052;13.820;2023-07-09T00:09:55;0.10;;;0.10;;
7841;SDS011;3966;51.052;13.820;2023-07-09T00:12:22;0.10;;;0.10;;
7841;SDS011;3966;51.052;13.820;2023-07-09T00:14:48;0.10;;;0.10;;
7841;SDS011;3966;51.052;13.820;2023-07-09T00:17:32;0.10;;;0.10;;
7841;SDS011;3966;51.052;13.820;2023-07-09T00:19:59;0.10;;;0.10;;
7841;SDS011;3966;51.052;13.820;2023-07-09T00:22:24;0.08;;;0.08;;
7841;SDS011;3966;51.052;13.820;2023-07-09T00:24:52;0.00;;;0.00;;
7841;SDS011;3966;51.052;13.820;2023-07-09T00:27:22;0.10;;;0.10;;
7841;SDS011;3966;51.052;13.820;2023-07-09T00:29:50;0.10;;;0.10;;
7841;SDS011;3966;51.052;13.820;2023-07-09T00:32:18;0.10;;;0.10;;
7841;SDS011;3966;51.052;13.820;2023-07-09T00:34:47;0.10;;;0.10;;
7841;SDS011;3966;51.052;13.820;2023-07-09T00:37:14;0.10;;;0.10;;
7841;SDS011;3966;51.052;13.820;2023-07-09T00:39:42;0.10;;;0.10;;
7841;SDS011;3966;51.052;13.820;2023-07-09T00:42:15;0.10;;;0.10;;
7841;SDS011;3966;51.052;13.820;2023-07-09T00:44:45;0.10;;;0.10;;
7841;SDS011;3966;51.052;13.820;2023-07-09T00:47:17;0.10;;;0.10;;
7841;SDS011;3966;51.052;13.820;2023-07-09T00:49:48;0.00;;;0.00;;
7841;SDS011;3966;51.052;13.820;2023-07-09T00:52:22;0.10;;;0.10;;
7841;SDS011;3966;51.052;13.820;2023-07-09T00:54:48;0.03;;;0.03;;
7841;SDS011;3966;51.052;13.820;2023-07-09T00:57:17;0.10;;;0.10;;
7841;SDS011;3966;51.052;13.820;2023-07-09T00:59:47;0.10;;;0.10;;
7841;SDS011;3966;51.052;13.820;2023-07-09T01:02:18;0.10;;;0.10;;
7841;SDS011;3966;51.052;13.820;2023-07-09T01:04:48;0.10;;;0.10;;
7841;SDS011;3966;51.052;13.820;2023-07-09T01:07:16;0.10;;;0.10;;
7841;SDS011;3966;51.052;13.820;2023-07-09T01:09:42;0.00;;;0.00;;
7841;SDS011;3966;51.052;13.820;2023-07-09T01:12:08;0.10;;;0.10;;
7841;SDS011;3966;51.052;13.820;2023-07-09T01:14:34;0.10;;;0.10;;
7841;SDS011;3966;51.052;13.820;2023-07-09T01:17:02;0.00;;;0.00;;
7841;SDS011;3966;51.052;13.820;2023-07-09T01:19:35;0.10;;;0.10;;
7841;SDS011;3966;51.052;13.820;2023-07-09T01:22:08;0.10;;;0.10;;
7841;SDS011;3966;51.052;13.820;2023-07-09T01:24:49;0.10;;;0.10;;
7841;SDS011;3966;51.052;13.820;2023-07-09T01:27:20;0.10;;;0.10;;
7841;SDS011;3966;51.052;13.820;2023-07-09T01:29:51;0.10;;;0.10;;
7841;SDS011;3966;51.052;13.820;2023-07-09T01:32:19;0.00;;;0.00;;
7841;SDS011;3966;51.052;13.820;2023-07-09T01:34:46;0.10;;;0.10;;
7841;SDS011;3966;51.052;13.820;2023-07-09T01:37:17;0.10;;;0.10;;
7841;SDS011;3966;51.052;13.820;2023-07-09T01:39:46;0.10;;;0.10;;
7841;SDS011;3966;51.052;13.820;2023-07-09T01:42:14;0.10;;;0.10;;
7841;SDS011;3966;51.052;13.820;2023-07-09T01:44:40;0.10;;;0.10;;
7841;SDS011;3966;51.052;13.820;2023-07-09T01:47:06;0.10;;;0.10;;
7841;SDS011;3966;51.052;13.820;2023-07-09T01:49:32;0.10;;;0.10;;
7841;SDS011;3966;51.052;13.820;2023-07-09T01:52:00;0.10;;;0.10;;
7841;SDS011;3966;51.052;13.820;2023-07-09T01:54:30;0.05;;;0.05;;
7841;SDS011;3966;51.052;13.820;2023-07-09T01:57:12;0.10;;;0.10;;
7841;SDS011;3966;51.052;13.820;2023-07-09T01:59:54;0.10;;;0.10;;
7841;SDS011;3966;51.052;13.820;2023-07-09T02:02:20;0.10;;;0.10;;
7841;SDS011;3966;51.052;13.820;2023-07-09T02:04:47;0.10;;;0.10;;
7841;SDS011;3966;51.052;13.820;2023-07-09T02:07:14;0.00;;;0.00;;
7841;SDS011;3966;51.052;13.820;2023-07-09T02:09:41;0.10;;;0.10;;
7841;SDS011;3966;51.052;13.820;2023-07-09T02:12:08;0.05;;;0.05;;
7841;SDS011;3966;51.052;13.820;2023-07-09T02:14:34;0.10;;;0.10;;
7841;SDS011;3966;51.052;13.820;2023-07-09T02:17:01;0.10;;;0.10;;
7841;SDS011;3966;51.052;13.820;2023-07-09T02:19:27;0.10;;;0.10;;
7841;SDS011;3966;51.052;13.820;2023-07-09T02:21:54;0.08;;;0.08;;
7841;SDS011;3966;51.052;13.820;2023-07-09T02:24:20;0.00;;;0.00;;
7841;SDS011;3966;51.052;13.820;2023-07-09T02:26:49;0.10;;;0.10;;
7841;SDS011;3966;51.052;13.820;2023-07-09T02:29:15;0.10;;;0.10;;
7841;SDS011;3966;51.052;13.820;2023-07-09T02:31:41;0.10;;;0.10;;
7841;SDS011;3966;51.052;13.820;2023-07-09T02:34:07;0.10;;;0.10;;
7841;SDS011;3966;51.052;13.820;2023-07-09T02:36:33;0.05;;;0.05;;
7841;SDS011;3966;51.052;13.820;2023-07-09T02:38:58;0.00;;;0.00;;
7841;SDS011;3966;51.052;13.820;2023-07-09T02:41:24;0.10;;;0.10;;
7841;SDS011;3966;51.052;13.820;2023-07-09T02:43:50;0.03;;;0.03;;
7841;SDS011;3966;51.052;13.820;2023-07-09T02:46:15;0.00;;;0.00;;
7841;SDS011;3966;51.052;13.820;2023-07-09T02:48:41;0.10;;;0.10;;
7841;SDS011;3966;51.052;13.820;2023-07-09T02:51:06;0.00;;;0.00;;
7841;SDS011;3966;51.052;13.820;2023-07-09T02:53:32;0.08;;;0.08;;
7841;SDS011;3966;51.052;13.820;2023-07-09T02:55:58;0.05;;;0.05;;
7841;SDS011;3966;51.052;13.820;2023-07-09T02:58:23;0.10;;;0.10;;
7841;SDS011;3966;51.052;13.820;2023-07-09T03:00:49;0.10;;;0.10;;
7841;SDS011;3966;51.052;13.820;2023-07-09T03:03:18;0.00;;;0.00;;
7841;SDS011;3966;51.052;13.820;2023-07-09T03:05:45;0.10;;;0.10;;
7841;SDS011;3966;51.052;13.820;2023-07-09T03:08:12;0.00;;;0.00;;
7841;SDS011;3966;51.052;13.820;2023-07-09T03:10:38;0.10;;;0.10;;
7841;SDS011;3966;51.052;13.820;2023-07-09T03:13:03;0.05;;;0.05;;
7841;SDS011;3966;51.052;13.820;2023-07-09T03:15:30;0.00;;;0.00;;
7841;SDS011;3966;51.052;13.820;2023-07-09T03:17:56;0.10;;;0.10;;
7841;SDS011;3966;51.052;13.820;2023-07-09T03:20:21;0.10;;;0.10;;
7841;SDS011;3966;51.052;13.820;2023-07-09T03:22:47;0.10;;;0.10;;
7841;SDS011;3966;51.052;13.820;2023-07-09T03:25:13;0.10;;;0.10;;
7841;SDS011;3966;51.052;13.820;2023-07-09T03:27:38;0.10;;;0.10;;
7841;SDS011;3966;51.052;13.820;2023-07-09T03:30:04;0.00;;;0.00;;
7841;SDS011;3966;51.052;13.820;2023-07-09T03:32:31;0.10;;;0.10;;
7841;SDS011;3966;51.052;13.820;2023-07-09T03:34:57;0.10;;;0.10;;
7841;SDS011;3966;51.052;13.820;2023-07-09T03:37:22;0.10;;;0.10;;
7841;SDS011;3966;51.052;13.820;2023-07-09T03:39:48;0.10;;;0.10;;
7841;SDS011;3966;51.052;13.820;2023-07-09T03:42:14;0.00;;;0.00;;
7841;SDS011;3966;51.052;13.820;2023-07-09T03:44:39;0.00;;;0.00;;
7841;SDS011;3966;51.052;13.820;2023-07-09T03:47:06;0.00;;;0.00;;
7841;SDS011;3966;51.052;13.820;2023-07-09T03:49:32;0.08;;;0.08;;
7841;SDS011;3966;51.052;13.820;2023-07-09T03:51:58;0.10;;;0.10;;
7841;SDS011;3966;51.052;13.820;2023-07-09T03:54:24;0.00;;;0.00;;
7841;SDS011;3966;51.052;13.820;2023-07-09T03:56:49;0.00;;;0.00;;
7841;SDS011;3966;51.052;13.820;2023-07-09T03:59:15;0.10;;;0.10;;
7841;SDS011;3966;51.052;13.820;2023-07-09T04:01:40;0.00;;;0.00;;
7841;SDS011;3966;51.052;13.820;2023-07-09T04:04:11;0.10;;;0.10;;
7841;SDS011;3966;51.052;13.820;2023-07-09T04:06:37;0.10;;;0.10;;
7841;SDS011;3966;51.052;13.820;2023-07-09T04:09:03;0.10;;;0.10;;
7841;SDS011;3966;51.052;13.820;2023-07-09T04:11:29;0.10;;;0.10;;
7841;SDS011;3966;51.052;13.820;2023-07-09T04:13:54;0.10;;;0.10;;
7841;SDS011;3966;51.052;13.820;2023-07-09T04:16:20;0.00;;;0.00;;
7841;SDS011;3966;51.052;13.820;2023-07-09T04:18:46;0.10;;;0.10;;
7841;SDS011;3966;51.052;13.820;2023-07-09T04:21:12;0.10;;;0.10;;
7841;SDS011;3966;51.052;13.820;2023-07-09T04:23:37;0.10;;;0.10;;
7841;SDS011;3966;51.052;13.820;2023-07-09T04:26:03;0.08;;;0.08;;
7841;SDS011;3966;51.052;13.820;2023-07-09T04:28:29;0.10;;;0.10;;
7841;SDS011;3966;51.052;13.820;2023-07-09T04:30:56;0.10;;;0.10;;
7841;SDS011;3966;51.052;13.820;2023-07-09T04:33:21;0.10;;;0.10;;
7841;SDS011;3966;51.052;13.820;2023-07-09T04:35:48;0.00;;;0.00;;
7841;SDS011;3966;51.052;13.820;2023-07-09T04:38:14;0.10;;;0.10;;
7841;SDS011;3966;51.052;13.820;2023-07-09T04:40:40;0.00;;;0.00;;
7841;SDS011;3966;51.052;13.820;2023-07-09T04:43:06;0.00;;;0.00;;
7841;SDS011;3966;51.052;13.820;2023-07-09T04:45:32;0.10;;;0.10;;
7841;SDS011;3966;51.052;13.820;2023-07-09T04:47:58;0.00;;;0.00;;
7841;SDS011;3966;51.052;13.820;2023-07-09T04:50:23;0.00;;;0.00;;
7841;SDS011;3966;51.052;13.820;2023-07-09T04:52:49;0.00;;;0.00;;
7841;SDS011;3966;51.052;13.820;2023-07-09T04:55:15;0.10;;;0.10;;
7841;SDS011;3966;51.052;13.820;2023-07-09T04:57:44;0.10;;;0.10;;
7841;SDS011;3966;51.052;13.820;2023-07-09T05:00:10;0.03;;;0.03;;
7841;SDS011;3966;51.052;13.820;2023-07-09T05:02:36;0.08;;;0.08;;
7841;SDS011;3966;51.052;13.820;2023-07-09T05:05:02;0.10;;;0.10;;
7841;SDS011;3966;51.052;13.820;2023-07-09T05:07:27;0.00;;;0.00;;
7841;SDS011;3966;51.052;13.820;2023-07-09T05:09:53;0.10;;;0.10;;
7841;SDS011;3966;51.052;13.820;2023-07-09T05:12:19;0.10;;;0.10;;
7841;SDS011;3966;51.052;13.820;2023-07-09T05:14:45;0.10;;;0.10;;
7841;SDS011;3966;51.052;13.820;2023-07-09T05:17:11;0.00;;;0.00;;
7841;SDS011;3966;51.052;13.820;2023-07-09T05:19:38;0.10;;;0.10;;
7841;SDS011;3966;51.052;13.820;2023-07-09T05:22:04;0.10;;;0.10;;
7841;SDS011;3966;51.052;13.820;2023-07-09T05:24:30;0.10;;;0.10;;
7841;SDS011;3966;51.052;13.820;2023-07-09T05:26:55;0.10;;;0.10;;
7841;SDS011;3966;51.052;13.820;2023-07-09T05:29:21;0.10;;;0.10;;
7841;SDS011;3966;51.052;13.820;2023-07-09T05:31:47;0.10;;;0.10;;
7841;SDS011;3966;51.052;13.820;2023-07-09T05:34:12;0.10;;;0.10;;
7841;SDS011;3966;51.052;13.820;2023-07-09T05:36:38;0.10;;;0.10;;
7841;SDS011;3966;51.052;13.820;2023-07-09T05:39:04;0.00;;;0.00;;
7841;SDS011;3966;51.052;13.820;2023-07-09T05:41:30;0.10;;;0.10;;
7841;SDS011;3966;51.052;13.820;2023-07-09T05:43:55;0.10;;;0.10;;
7841;SDS011;3966;51.052;13.820;2023-07-09T05:46:21;0.10;;;0.10;;
7841;SDS011;3966;51.052;13.820;2023-07-09T05:48:47;0.00;;;0.00;;
7841;SDS011;3966;51.052;13.820;2023-07-09T05:51:13;0.10;;;0.10;;
7841;SDS011;3966;51.052;13.820;2023-07-09T05:53:39;0.08;;;0.08;;
7841;SDS011;3966;51.052;13.820;2023-07-09T05:56:05;0.10;;;0.10;;
7841;SDS011;3966;51.052;13.820;2023-07-09T05:58:31;0.10;;;0.10;;
7841;SDS011;3966;51.052;13.820;2023-07-09T06:00:56;0.00;;;0.00;;
7841;SDS011;3966;51.052;13.820;2023-07-09T06:03:23;0.10;;;0.10;;
7841;SDS011;3966;51.052;13.820;2023-07-09T06:05:50;0.10;;;0.10;;
7841;SDS011;3966;51.052;13.820;2023-07-09T06:08:17;0.10;;;0.10;;
7841;SDS011;3966;51.052;13.820;2023-07-09T06:10:59;0.10;;;0.10;;
7841;SDS011;3966;51.052;13.820;2023-07-09T06:13:27;0.10;;;0.10;;
7841;SDS011;3966;51.052;13.820;2023-07-09T06:15:56;0.10;;;0.10;;
7841;SDS011;3966;51.052;13.820;2023-07-09T06:18:22;0.10;;;0.10;;
7841;SDS011;3966;51.052;13.820;2023-07-09T06:20:50;0.10;;;0.10;;
7841;SDS011;3966;51.052;13.820;2023-07-09T06:23:17;0.10;;;0.10;;
7841;SDS011;3966;51.052;13.820;2023-07-09T06:25:44;0.10;;;0.10;;
7841;SDS011;3966;51.052;13.820;2023-07-09T06:28:17;0.10;;;0.10;;
7841;SDS011;3966;51.052;13.820;2023-07-09T06:30:45;0.10;;;0.10;;
7841;SDS011;3966;51.052;13.820;2023-07-09T06:33:11;0.00;;;0.00;;
7841;SDS011;3966;51.052;13.820;2023-07-09T06:35:38;0.10;;;0.10;;
7841;SDS011;3966;51.052;13.820;2023-07-09T06:38:04;0.10;;;0.10;;
7841;SDS011;3966;51.052;13.820;2023-07-09T06:40:31;0.10;;;0.10;;
7841;SDS011;3966;51.052;13.820;2023-07-09T06:42:56;0.10;;;0.10;;
7841;SDS011;3966;51.052;13.820;2023-07-09T06:45:23;0.10;;;0.10;;
7841;SDS011;3966;51.052;13.820;2023-07-09T06:47:49;0.10;;;0.10;;
7841;SDS011;3966;51.052;13.820;2023-07-09T06:50:15;0.10;;;0.10;;
7841;SDS011;3966;51.052;13.820;2023-07-09T06:52:40;0.05;;;0.05;;
7841;SDS011;3966;51.052;13.820;2023-07-09T06:55:06;0.10;;;0.10;;
7841;SDS011;3966;51.052;13.820;2023-07-09T06:57:32;0.10;;;0.10;;
7841;SDS011;3966;51.052;13.820;2023-07-09T06:59:58;0.10;;;0.10;;
7841;SDS011;3966;51.052;13.820;2023-07-09T07:02:24;0.10;;;0.10;;
7841;SDS011;3966;51.052;13.820;2023-07-09T07:04:50;0.03;;;0.03;;
7841;SDS011;3966;51.052;13.820;2023-07-09T07:07:15;0.03;;;0.03;;
7841;SDS011;3966;51.052;13.820;2023-07-09T07:09:41;0.00;;;0.00;;
7841;SDS011;3966;51.052;13.820;2023-07-09T07:12:07;0.10;;;0.10;;
7841;SDS011;3966;51.052;13.820;2023-07-09T07:14:32;0.10;;;0.10;;
7841;SDS011;3966;51.052;13.820;2023-07-09T07:16:58;0.10;;;0.10;;
7841;SDS011;3966;51.052;13.820;2023-07-09T07:19:24;0.00;;;0.00;;
7841;SDS011;3966;51.052;13.820;2023-07-09T07:21:49;0.10;;;0.10;;
7841;SDS011;3966;51.052;13.820;2023-07-09T07:24:15;0.00;;;0.00;;
7841;SDS011;3966;51.052;13.820;2023-07-09T07:26:40;0.10;;;0.10;;
7841;SDS011;3966;51.052;13.820;2023-07-09T07:29:06;0.10;;;0.10;;
7841;SDS011;3966;51.052;13.820;2023-07-09T07:31:32;0.00;;;0.00;;
7841;SDS011;3966;51.052;13.820;2023-07-09T07:33:57;0.10;;;0.10;;
7841;SDS011;3966;51.052;13.820;2023-07-09T07:36:23;0.10;;;0.10;;
7841;SDS011;3966;51.052;13.820;2023-07-09T07:38:48;0.10;;;0.10;;
7841;SDS011;3966;51.052;13.820;2023-07-09T07:41:14;0.00;;;0.00;;
7841;SDS011;3966;51.052;13.820;2023-07-09T07:43:40;0.10;;;0.10;;
7841;SDS011;3966;51.052;13.820;2023-07-09T07:46:06;0.10;;;0.10;;
7841;SDS011;3966;51.052;13.820;2023-07-09T07:48:32;0.10;;;0.10;;
7841;SDS011;3966;51.052;13.820;2023-07-09T07:51:02;0.00;;;0.00;;
7841;SDS011;3966;51.052;13.820;2023-07-09T07:53:28;0.10;;;0.10;;
7841;SDS011;3966;51.052;13.820;2023-07-09T07:55:57;0.10;;;0.10;;
7841;SDS011;3966;51.052;13.820;2023-07-09T07:58:23;0.10;;;0.10;;
7841;SDS011;3966;51.052;13.820;2023-07-09T08:00:49;0.08;;;0.08;;
7841;SDS011;3966;51.052;13.820;2023-07-09T08:03:15;0.10;;;0.10;;
7841;SDS011;3966;51.052;13.820;2023-07-09T08:05:41;0.10;;;0.10;;
7841;SDS011;3966;51.052;13.820;2023-07-09T08:08:07;0.10;;;0.10;;
7841;SDS011;3966;51.052;13.820;2023-07-09T08:10:32;0.10;;;0.10;;
7841;SDS011;3966;51.052;13.820;2023-07-09T08:12:58;0.10;;;0.10;;
7841;SDS011;3966;51.052;13.820;2023-07-09T08:15:24;0.10;;;0.10;;
7841;SDS011;3966;51.052;13.820;2023-07-09T08:17:50;0.10;;;0.10;;
7841;SDS011;3966;51.052;13.820;2023-07-09T08:20:15;0.10;;;0.10;;
7841;SDS011;3966;51.052;13.820;2023-07-09T08:22:41;0.00;;;0.00;;
7841;SDS011;3966;51.052;13.820;2023-07-09T08:25:07;0.10;;;0.10;;
7841;SDS011;3966;51.052;13.820;2023-07-09T08:27:33;0.10;;;0.10;;
7841;SDS011;3966;51.052;13.820;2023-07-09T08:29:59;0.10;;;0.10;;
7841;SDS011;3966;51.052;13.820;2023-07-09T08:32:24;0.10;;;0.10;;
7841;SDS011;3966;51.052;13.820;2023-07-09T08:34:50;0.10;;;0.10;;
7841;SDS011;3966;51.052;13.820;2023-07-09T08:37:15;0.10;;;0.10;;
7841;SDS011;3966;51.052;13.820;2023-07-09T08:39:41;0.10;;;0.10;;
7841;SDS011;3966;51.052;13.820;2023-07-09T08:42:07;0.10;;;0.10;;
7841;SDS011;3966;51.052;13.820;2023-07-09T08:55:05;0.10;;;0.10;;
7841;SDS011;3966;51.052;13.820;2023-07-09T08:57:37;0.10;;;0.10;;
7841;SDS011;3966;51.052;13.820;2023-07-09T09:00:10;0.10;;;0.10;;
7841;SDS011;3966;51.052;13.820;2023-07-09T09:05:36;0.10;;;0.10;;
7841;SDS011;3966;51.052;13.820;2023-07-09T09:08:16;0.10;;;0.10;;
7841;SDS011;3966;51.052;13.820;2023-07-09T09:10:52;0.10;;;0.10;;
7841;SDS011;3966;51.052;13.820;2023-07-09T09:13:26;0.10;;;0.10;;
7841;SDS011;3966;51.052;13.820;2023-07-09T09:15:54;0.10;;;0.10;;
7841;SDS011;3966;51.052;13.820;2023-07-09T09:18:29;0.10;;;0.10;;
7841;SDS011;3966;51.052;13.820;2023-07-09T09:23:50;0.10;;;0.10;;
7841;SDS011;3966;51.052;13.820;2023-07-09T09:26:27;0.20;;;0.20;;
7841;SDS011;3966;51.052;13.820;2023-07-09T09:28:54;0.10;;;0.10;;
7841;SDS011;3966;51.052;13.820;2023-07-09T09:31:20;0.10;;;0.10;;
7841;SDS011;3966;51.052;13.820;2023-07-09T09:33:47;0.10;;;0.10;;
7841;SDS011;3966;51.052;13.820;2023-07-09T09:36:15;0.10;;;0.10;;
7841;SDS011;3966;51.052;13.820;2023-07-09T09:38:46;0.15;;;0.15;;
7841;SDS011;3966;51.052;13.820;2023-07-09T09:41:16;0.10;;;0.10;;
7841;SDS011;3966;51.052;13.820;2023-07-09T09:43:49;0.10;;;0.10;;
7841;SDS011;3966;51.052;13.820;2023-07-09T09:46:18;0.13;;;0.13;;
7841;SDS011;3966;51.052;13.820;2023-07-09T09:48:47;0.10;;;0.10;;
7841;SDS011;3966;51.052;13.820;2023-07-09T09:51:15;0.10;;;0.10;;
7841;SDS011;3966;51.052;13.820;2023-07-09T09:53:45;0.10;;;0.10;;
7841;SDS011;3966;51.052;13.820;2023-07-09T09:56:15;0.10;;;0.10;;
7841;SDS011;3966;51.052;13.820;2023-07-09T09:59:00;0.10;;;0.10;;
7841;SDS011;3966;51.052;13.820;2023-07-09T10:01:33;0.10;;;0.10;;
7841;SDS011;3966;51.052;13.820;2023-07-09T10:04:04;0.10;;;0.10;;
7841;SDS011;3966;51.052;13.820;2023-07-09T10:06:37;0.10;;;0.10;;
7841;SDS011;3966;51.052;13.820;2023-07-09T10:11:48;0.10;;;0.10;;
7841;SDS011;3966;51.052;13.820;2023-07-09T10:19:59;0.10;;;0.10;;
7841;SDS011;3966;51.052;13.820;2023-07-09T10:30:52;0.13;;;0.13;;
7841;SDS011;3966;51.052;13.820;2023-07-09T10:39:18;0.20;;;0.20;;
7841;SDS011;3966;51.052;13.820;2023-07-09T10:41:49;0.20;;;0.20;;
7841;SDS011;3966;51.052;13.820;2023-07-09T10:44:18;0.20;;;0.20;;
7841;SDS011;3966;51.052;13.820;2023-07-09T10:46:50;0.20;;;0.20;;
7841;SDS011;3966;51.052;13.820;2023-07-09T10:49:21;0.10;;;0.10;;
7841;SDS011;3966;51.052;13.820;2023-07-09T10:51:54;0.20;;;0.20;;
7841;SDS011;3966;51.052;13.820;2023-07-09T10:59:59;0.20;;;0.20;;
7841;SDS011;3966;51.052;13.820;2023-07-09T11:02:28;0.20;;;0.20;;
7841;SDS011;3966;51.052;13.820;2023-07-09T11:04:57;0.15;;;0.15;;
7841;SDS011;3966;51.052;13.820;2023-07-09T11:10:01;0.20;;;0.20;;
7841;SDS011;3966;51.052;13.820;2023-07-09T11:12:35;0.20;;;0.20;;
7841;SDS011;3966;51.052;13.820;2023-07-09T11:15:06;0.20;;;0.20;;
7841;SDS011;3966;51.052;13.820;2023-07-09T11:17:39;0.20;;;0.20;;
7841;SDS011;3966;51.052;13.820;2023-07-09T11:20:15;0.20;;;0.20;;
7841;SDS011;3966;51.052;13.820;2023-07-09T11:22:50;0.20;;;0.20;;
7841;SDS011;3966;51.052;13.820;2023-07-09T11:25:26;0.20;;;0.20;;
7841;SDS011;3966;51.052;13.820;2023-07-09T11:27:54;0.20;;;0.20;;
7841;SDS011;3966;51.052;13.820;2023-07-09T11:30:28;0.20;;;0.20;;
7841;SDS011;3966;51.052;13.820;2023-07-09T11:32:59;0.20;;;0.20;;
7841;SDS011;3966;51.052;13.820;2023-07-09T11:35:29;0.20;;;0.20;;
7841;SDS011;3966;51.052;13.820;2023-07-09T11:38:17;0.20;;;0.20;;
7841;SDS011;3966;51.052;13.820;2023-07-09T11:40:54;0.20;;;0.20;;
7841;SDS011;3966;51.052;13.820;2023-07-09T11:46:14;0.20;;;0.20;;
7841;SDS011;3966;51.052;13.820;2023-07-09T11:48:43;0.20;;;0.20;;
7841;SDS011;3966;51.052;13.820;2023-07-09T11:51:44;0.20;;;0.20;;
7841;SDS011;3966;51.052;13.820;2023-07-09T11:54:12;0.20;;;0.20;;
7841;SDS011;3966;51.052;13.820;2023-07-09T11:56:40;0.20;;;0.20;;
7841;SDS011;3966;51.052;13.820;2023-07-09T11:59:07;0.20;;;0.20;;
7841;SDS011;3966;51.052;13.820;2023-07-09T12:01:38;0.20;;;0.20;;
7841;SDS011;3966;51.052;13.820;2023-07-09T12:04:12;0.20;;;0.20;;
7841;SDS011;3966;51.052;13.820;2023-07-09T12:06:41;0.20;;;0.20;;
7841;SDS011;3966;51.052;13.820;2023-07-09T12:09:18;0.20;;;0.20;;
7841;SDS011;3966;51.052;13.820;2023-07-09T12:11:46;0.20;;;0.20;;
7841;SDS011;3966;51.052;13.820;2023-07-09T12:14:17;0.20;;;0.20;;
7841;SDS011;3966;51.052;13.820;2023-07-09T12:16:49;0.20;;;0.20;;
7841;SDS011;3966;51.052;13.820;2023-07-09T12:19:17;0.20;;;0.20;;
7841;SDS011;3966;51.052;13.820;2023-07-09T12:21:45;0.20;;;0.20;;
7841;SDS011;3966;51.052;13.820;2023-07-09T12:24:15;0.20;;;0.20;;
7841;SDS011;3966;51.052;13.820;2023-07-09T12:26:51;0.30;;;0.30;;
7841;SDS011;3966;51.052;13.820;2023-07-09T12:29:35;0.20;;;0.20;;
7841;SDS011;3966;51.052;13.820;2023-07-09T12:32:15;0.20;;;0.20;;
7841;SDS011;3966;51.052;13.820;2023-07-09T12:34:42;0.20;;;0.20;;
7841;SDS011;3966;51.052;13.820;2023-07-09T12:37:12;0.20;;;0.20;;
7841;SDS011;3966;51.052;13.820;2023-07-09T12:39:39;0.20;;;0.20;;
7841;SDS011;3966;51.052;13.820;2023-07-09T12:42:12;0.20;;;0.20;;
7841;SDS011;3966;51.052;13.820;2023-07-09T12:44:41;0.20;;;0.20;;
7841;SDS011;3966;51.052;13.820;2023-07-09T12:47:07;0.20;;;0.20;;
7841;SDS011;3966;51.052;13.820;2023-07-09T12:49:42;0.23;;;0.23;;
7841;SDS011;3966;51.052;13.820;2023-07-09T12:52:17;0.20;;;0.20;;
7841;SDS011;3966;51.052;13.820;2023-07-09T12:54:51;0.20;;;0.20;;
7841;SDS011;3966;51.052;13.820;2023-07-09T12:57:27;0.22;;;0.22;;
7841;SDS011;3966;51.052;13.820;2023-07-09T12:59:55;0.20;;;0.20;;
7841;SDS011;3966;51.052;13.820;2023-07-09T13:04:59;0.20;;;0.20;;
7841;SDS011;3966;51.052;13.820;2023-07-09T13:07:31;0.20;;;0.20;;
7841;SDS011;3966;51.052;13.820;2023-07-09T13:10:04;0.20;;;0.20;;
7841;SDS011;3966;51.052;13.820;2023-07-09T13:12:33;0.25;;;0.25;;
7841;SDS011;3966;51.052;13.820;2023-07-09T13:14:58;0.28;;;0.28;;
7841;SDS011;3966;51.052;13.820;2023-07-09T13:17:27;0.30;;;0.30;;
7841;SDS011;3966;51.052;13.820;2023-07-09T13:19:58;0.25;;;0.25;;
7841;SDS011;3966;51.052;13.820;2023-07-09T13:22:24;0.20;;;0.20;;
7841;SDS011;3966;51.052;13.820;2023-07-09T13:24:50;0.20;;;0.20;;
7841;SDS011;3966;51.052;13.820;2023-07-09T13:27:16;0.20;;;0.20;;
7841;SDS011;3966;51.052;13.820;2023-07-09T13:29:42;0.20;;;0.20;;
7841;SDS011;3966;51.052;13.820;2023-07-09T13:32:12;0.20;;;0.20;;
7841;SDS011;3966;51.052;13.820;2023-07-09T13:34:39;0.25;;;0.25;;
7841;SDS011;3966;51.052;13.820;2023-07-09T13:37:08;0.30;;;0.30;;
7841;SDS011;3966;51.052;13.820;2023-07-09T13:39:37;0.30;;;0.30;;
7841;SDS011;3966;51.052;13.820;2023-07-09T13:42:03;0.30;;;0.30;;
7841;SDS011;3966;51.052;13.820;2023-07-09T13:44:33;0.20;;;0.20;;
7841;SDS011;3966;51.052;13.820;2023-07-09T13:47:00;0.20;;;0.20;;
7841;SDS011;3966;51.052;13.820;2023-07-09T13:49:26;0.28;;;0.28;;
7841;SDS011;3966;51.052;13.820;2023-07-09T13:51:54;0.20;;;0.20;;
7841;SDS011;3966;51.052;13.820;2023-07-09T13:54:24;0.20;;;0.20;;
7841;SDS011;3966;51.052;13.820;2023-07-09T13:57:06;0.30;;;0.30;;
7841;SDS011;3966;51.052;13.820;2023-07-09T13:59:38;0.28;;;0.28;;
7841;SDS011;3966;51.052;13.820;2023-07-09T14:02:07;0.28;;;0.28;;
7841;SDS011;3966;51.052;13.820;2023-07-09T14:04:54;0.30;;;0.30;;
7841;SDS011;3966;51.052;13.820;2023-07-09T14:07:30;0.30;;;0.30;;
7841;SDS011;3966;51.052;13.820;2023-07-09T14:09:58;0.30;;;0.30;;
7841;SDS011;3966;51.052;13.820;2023-07-09T14:12:25;0.30;;;0.30;;
7841;SDS011;3966;51.052;13.820;2023-07-09T14:14:52;0.30;;;0.30;;
7841;SDS011;3966;51.052;13.820;2023-07-09T14:17:20;0.30;;;0.30;;
7841;SDS011;3966;51.052;13.820;2023-07-09T14:19:47;0.30;;;0.30;;
7841;SDS011;3966;51.052;13.820;2023-07-09T14:24:56;0.30;;;0.30;;
7841;SDS011;3966;51.052;13.820;2023-07-09T14:27:22;0.30;;;0.30;;
7841;SDS011;3966;51.052;13.820;2023-07-09T14:29:48;0.25;;;0.25;;
7841;SDS011;3966;51.052;13.820;2023-07-09T14:32:36;0.30;;;0.30;;
7841;SDS011;3966;51.052;13.820;2023-07-09T14:35:09;0.30;;;0.30;;
7841;SDS011;3966;51.052;13.820;2023-07-09T14:37:43;0.30;;;0.30;;
7841;SDS011;3966;51.052;13.820;2023-07-09T14:40:10;0.30;;;0.30;;
7841;SDS011;3966;51.052;13.820;2023-07-09T14:42:37;0.30;;;0.30;;
7841;SDS011;3966;51.052;13.820;2023-07-09T14:45:04;0.30;;;0.30;;
7841;SDS011;3966;51.052;13.820;2023-07-09T14:47:31;0.30;;;0.30;;
7841;SDS011;3966;51.052;13.820;2023-07-09T14:49:56;0.30;;;0.30;;
7841;SDS011;3966;51.052;13.820;2023-07-09T14:52:22;0.30;;;0.30;;
7841;SDS011;3966;51.052;13.820;2023-07-09T14:54:48;0.30;;;0.30;;
7841;SDS011;3966;51.052;13.820;2023-07-09T14:57:17;0.30;;;0.30;;
7841;SDS011;3966;51.052;13.820;2023-07-09T14:59:51;0.30;;;0.30;;
7841;SDS011;3966;51.052;13.820;2023-07-09T15:02:20;0.40;;;0.40;;
7841;SDS011;3966;51.052;13.820;2023-07-09T15:04:48;0.35;;;0.35;;
7841;SDS011;3966;51.052;13.820;2023-07-09T15:07:14;0.30;;;0.30;;
7841;SDS011;3966;51.052;13.820;2023-07-09T15:09:40;0.30;;;0.30;;
7841;SDS011;3966;51.052;13.820;2023-07-09T15:12:11;0.30;;;0.30;;
7841;SDS011;3966;51.052;13.820;2023-07-09T15:14:41;0.30;;;0.30;;
7841;SDS011;3966;51.052;13.820;2023-07-09T15:17:07;0.30;;;0.30;;
7841;SDS011;3966;51.052;13.820;2023-07-09T15:19:35;0.35;;;0.35;;
7841;SDS011;3966;51.052;13.820;2023-07-09T15:22:01;0.32;;;0.32;;
7841;SDS011;3966;51.052;13.820;2023-07-09T15:24:27;0.30;;;0.30;;
7841;SDS011;3966;51.052;13.820;2023-07-09T15:26:54;0.40;;;0.40;;
7841;SDS011;3966;51.052;13.820;2023-07-09T15:29:21;0.30;;;0.30;;
7841;SDS011;3966;51.052;13.820;2023-07-09T15:31:47;0.30;;;0.30;;
7841;SDS011;3966;51.052;13.820;2023-07-09T15:34:14;0.30;;;0.30;;
7841;SDS011;3966;51.052;13.820;2023-07-09T15:36:43;0.40;;;0.40;;
7841;SDS011;3966;51.052;13.820;2023-07-09T15:39:13;0.30;;;0.30;;
7841;SDS011;3966;51.052;13.820;2023-07-09T15:41:39;0.30;;;0.30;;
7841;SDS011;3966;51.052;13.820;2023-07-09T15:44:07;0.35;;;0.35;;
7841;SDS011;3966;51.052;13.820;2023-07-09T15:46:37;0.40;;;0.40;;
7841;SDS011;3966;51.052;13.820;2023-07-09T15:49:06;0.40;;;0.40;;
7841;SDS011;3966;51.052;13.820;2023-07-09T15:51:32;0.40;;;0.40;;
7841;SDS011;3966;51.052;13.820;2023-07-09T15:53:57;0.40;;;0.40;;
7841;SDS011;3966;51.052;13.820;2023-07-09T15:56:27;0.40;;;0.40;;
7841;SDS011;3966;51.052;13.820;2023-07-09T15:58:55;0.40;;;0.40;;
7841;SDS011;3966;51.052;13.820;2023-07-09T16:01:21;0.40;;;0.40;;
7841;SDS011;3966;51.052;13.820;2023-07-09T16:03:49;0.30;;;0.30;;